Time;durP1;ratioP1;P1;durP2;ratioP2;P2;SDS_P1;SDS_P2;PMS_P1;PMS_P2;Temp;Humidity;BMP_temperature;BMP_pressure;BME280_temperature;BME280_humidity;BME280_pressure;Samples;Min_cycle;Max_cycle;Signal;HPM_P1;HPM_P2
2020/12/09 00:01:15;;;;;;;9.73;4.87;;;;;;;5.34;97.51;97736.75;4982571;28;20516;-86
2020/12/09 00:04:26;;;;;;;8.70;4.87;;;;;;;5.36;97.99;97732.13;4981455;28;20054;-87
2020/12/09 00:07:38;;;;;;;6.47;4.30;;;;;;;5.44;98.23;97729.44;4982181;28;20159;-87
2020/12/09 00:10:51;;;;;;;5.10;4.43;;;;;;;5.32;97.92;97717.59;4994305;28;20042;-86
2020/12/09 00:14:03;;;;;;;6.40;4.80;;;;;;;5.36;97.50;97713.63;4993390;28;20045;-86
2020/12/09 00:17:15;;;;;;;5.47;4.33;;;;;;;5.43;98.25;97723.31;4993752;28;20081;-86
2020/12/09 00:20:27;;;;;;;6.30;4.63;;;;;;;5.46;98.33;97719.53;4981560;28;20050;-86
2020/12/09 00:23:40;;;;;;;6.50;4.37;;;;;;;5.47;98.12;97715.88;4970413;28;20408;-86
2020/12/09 00:26:54;;;;;;;6.33;4.30;;;;;;;5.50;97.79;97704.16;4982099;28;20583;-87
2020/12/09 00:30:08;;;;;;;4.70;3.63;;;;;;;5.31;98.38;97710.69;4982053;28;20512;-87
2020/12/09 00:33:23;;;;;;;3.57;3.07;;;;;;;5.38;98.49;97711.63;4993374;28;20038;-86
2020/12/09 00:36:37;;;;;;;7.17;5.27;;;;;;;5.57;98.65;97716.50;4982109;28;20038;-86
2020/12/09 00:39:51;;;;;;;3.87;3.43;;;;;;;5.91;99.99;97710.03;4982029;28;20485;-85
2020/12/09 00:43:04;;;;;;;7.10;4.60;;;;;;;5.60;98.13;97710.84;4981754;28;20046;-85
2020/12/09 00:46:22;;;;;;;5.10;4.00;;;;;;;5.56;97.21;97706.91;4985237;28;20389;-86
2020/12/09 00:53:15;;;;;;;5.53;3.60;;;;;;;5.52;97.51;97710.91;4969966;28;20398;-84
2020/12/09 00:56:28;;;;;;;5.70;3.70;;;;;;;5.54;97.33;97710.75;4993160;28;20042;-85
2020/12/09 00:59:48;;;;;;;7.93;4.37;;;;;;;5.50;97.50;97717.38;4970848;28;20039;-85
2020/12/09 01:03:10;;;;;;;6.65;4.78;;;;;;;5.61;98.17;97716.97;4969743;28;20046;-85
2020/12/09 01:06:22;;;;;;;5.33;4.17;;;;;;;5.56;97.36;97722.78;4979709;28;20061;-85
2020/12/09 01:09:34;;;;;;;3.67;3.30;;;;;;;5.70;97.67;97718.56;4981826;28;20045;-85
2020/12/09 01:12:47;;;;;;;3.87;3.30;;;;;;;5.74;97.75;97725.16;4981044;28;20486;-85
2020/12/09 01:15:58;;;;;;;3.72;2.70;;;;;;;5.79;97.95;97728.09;4980914;28;20046;-85
2020/12/09 01:19:10;;;;;;;3.65;3.10;;;;;;;5.74;97.57;97725.97;4980823;28;20080;-86
2020/12/09 01:22:27;;;;;;;3.60;2.90;;;;;;;5.79;97.41;97720.97;4986122;28;20058;-84
2020/12/09 01:25:40;;;;;;;5.77;3.93;;;;;;;5.78;97.33;97721.19;4980987;28;20050;-85
2020/12/09 01:28:53;;;;;;;3.57;2.77;;;;;;;5.66;97.55;97731.34;4980953;28;20046;-86
2020/12/09 01:32:05;;;;;;;5.27;3.70;;;;;;;5.64;97.79;97727.22;4980906;28;20034;-87
2020/12/09 01:35:18;;;;;;;3.40;3.03;;;;;;;5.69;96.91;97722.19;4992902;28;20053;-86
2020/12/09 01:38:31;;;;;;;3.00;2.70;;;;;;;5.66;96.94;97726.03;4980738;28;20046;-85
2020/12/09 01:41:43;;;;;;;3.90;2.97;;;;;;;5.72;97.25;97717.41;4991987;28;20049;-85
2020/12/09 01:44:56;;;;;;;3.87;3.23;;;;;;;5.70;96.92;97721.22;4980827;28;20501;-85
2020/12/09 01:48:11;;;;;;;3.83;2.90;;;;;;;5.66;97.02;97714.63;4991126;28;20049;-86
2020/12/09 01:51:28;;;;;;;3.47;2.80;;;;;;;5.66;97.33;97718.13;4980597;28;20050;-85
2020/12/09 01:54:42;;;;;;;3.67;2.60;;;;;;;5.75;97.23;97721.53;4991891;28;20050;-85
2020/12/09 01:57:55;;;;;;;4.87;2.83;;;;;;;5.71;97.15;97721.03;4980667;28;20444;-85
2020/12/09 02:01:07;;;;;;;3.50;2.73;;;;;;;5.67;96.95;97713.63;4969771;28;20059;-85
2020/12/09 02:04:20;;;;;;;4.13;2.63;;;;;;;5.59;97.61;97716.31;4974796;28;20053;-86
2020/12/09 02:07:32;;;;;;;4.60;2.57;;;;;;;5.61;97.37;97704.56;4987168;28;20049;-84
2020/12/09 02:10:57;;;;;;;4.47;3.13;;;;;;;5.60;97.33;97713.50;4980618;28;20047;-85
2020/12/09 02:14:13;;;;;;;3.20;2.30;;;;;;;5.62;97.29;97711.50;4971194;28;20057;-85
2020/12/09 02:17:26;;;;;;;4.17;2.60;;;;;;;5.66;96.99;97704.88;4992180;28;20050;-86
2020/12/09 02:20:37;;;;;;;2.57;2.30;;;;;;;5.58;97.16;97693.50;4980836;28;20046;-86
2020/12/09 02:23:50;;;;;;;4.40;2.53;;;;;;;5.62;97.39;97693.00;4972578;28;20072;-85
2020/12/09 02:27:02;;;;;;;2.80;2.33;;;;;;;5.62;97.40;97694.81;4984250;28;20050;-85
2020/12/09 02:30:17;;;;;;;4.33;2.30;;;;;;;5.74;98.17;97685.50;4972554;28;20405;-86
2020/12/09 02:33:30;;;;;;;6.30;2.80;;;;;;;5.76;97.78;97679.03;4984202;28;20046;-85
2020/12/09 02:36:41;;;;;;;3.17;2.40;;;;;;;5.78;97.52;97674.38;4984257;28;20045;-86
2020/12/09 02:39:55;;;;;;;5.27;2.80;;;;;;;5.81;97.45;97676.66;4984033;28;20497;-85
2020/12/09 02:43:09;;;;;;;3.77;2.57;;;;;;;5.76;97.36;97673.75;4983987;28;20497;-86
2020/12/09 02:46:23;;;;;;;3.33;2.50;;;;;;;5.80;97.25;97682.13;4972148;28;20425;-86
2020/12/09 02:49:38;;;;;;;2.60;2.17;;;;;;;5.74;97.35;97683.66;4995277;28;20104;-86
2020/12/09 02:52:51;;;;;;;2.07;1.70;;;;;;;5.76;96.96;97681.69;4982927;28;20054;-86
2020/12/09 02:56:06;;;;;;;4.83;2.60;;;;;;;5.76;97.49;97686.16;4983583;28;20054;-85
2020/12/09 02:59:21;;;;;;;2.33;2.07;;;;;;;5.73;97.50;97678.56;4995698;28;20433;-85
2020/12/09 03:02:34;;;;;;;3.83;2.40;;;;;;;5.81;97.60;97681.97;4971980;28;20038;-86
2020/12/09 03:05:49;;;;;;;3.67;2.37;;;;;;;5.84;98.06;97687.91;4972597;28;20038;-86
2020/12/09 03:09:02;;;;;;;3.23;2.10;;;;;;;5.98;98.01;97684.53;4983514;28;20057;-85
2020/12/09 03:12:14;;;;;;;2.97;2.00;;;;;;;6.07;97.61;97678.16;4972294;28;20073;-85
2020/12/09 03:15:26;;;;;;;3.23;2.20;;;;;;;5.90;96.79;97666.88;4971508;28;20512;-86
2020/12/09 03:18:37;;;;;;;3.15;1.88;;;;;;;5.84;96.29;97667.56;4971855;28;20062;-85
2020/12/09 03:21:48;;;;;;;2.65;1.90;;;;;;;5.99;97.12;97671.13;4983021;28;20054;-84
2020/12/09 03:25:02;;;;;;;2.70;1.80;;;;;;;5.78;95.77;97669.06;4993932;28;20053;-85
2020/12/09 03:28:15;;;;;;;2.17;1.97;;;;;;;5.73;96.72;97666.16;4971370;28;20038;-86
2020/12/09 03:31:29;;;;;;;3.23;2.50;;;;;;;5.76;96.85;97662.34;4982806;28;20038;-85
2020/12/09 03:34:41;;;;;;;3.23;1.97;;;;;;;5.68;96.87;97668.50;4983088;28;20052;-85
2020/12/09 03:37:56;;;;;;;1.67;1.57;;;;;;;5.69;96.90;97669.31;4994734;28;20053;-86
2020/12/09 03:41:10;;;;;;;2.77;2.20;;;;;;;5.67;97.28;97660.72;4971275;28;20490;-86
2020/12/09 03:44:24;;;;;;;2.37;1.93;;;;;;;5.67;96.70;97658.09;4987843;28;20058;-85
2020/12/09 03:47:38;;;;;;;2.83;1.90;;;;;;;5.61;97.00;97651.69;4982920;28;20481;-85
2020/12/09 03:50:52;;;;;;;5.73;2.07;;;;;;;5.71;96.78;97654.09;4982713;28;20412;-84
2020/12/09 03:54:06;;;;;;;2.00;1.70;;;;;;;5.65;96.57;97653.00;4981116;28;20528;-85
2020/12/09 03:57:21;;;;;;;1.87;1.67;;;;;;;5.77;97.68;97654.25;5004190;28;20046;-85
2020/12/09 04:00:34;;;;;;;3.00;2.23;;;;;;;5.84;97.84;97646.41;4982999;28;20049;-85
2020/12/09 04:03:47;;;;;;;2.43;1.60;;;;;;;6.59;96.84;97645.59;4970457;28;20425;-85
2020/12/09 04:07:01;;;;;;;2.00;1.53;;;;;;;6.57;94.61;97642.31;4970748;28;20046;-85
2020/12/09 04:10:12;;;;;;;1.52;1.25;;;;;;;6.21;94.08;97643.00;4981935;28;20046;-86
2020/12/09 04:13:25;;;;;;;1.97;1.23;;;;;;;5.91;93.80;97634.13;4982191;28;20049;-84
2020/12/09 04:16:40;;;;;;;2.57;1.40;;;;;;;5.71;94.52;97639.06;4971356;28;20043;-85
2020/12/09 04:19:53;;;;;;;2.43;1.17;;;;;;;5.81;95.98;97637.00;4987260;28;20042;-85
2020/12/09 04:23:08;;;;;;;3.47;1.10;;;;;;;5.42;95.69;97636.31;4987772;28;20042;-86
2020/12/09 04:26:18;;;;;;;;;;;;;;;5.43;96.59;97640.56;4970606;28;20054;-85
2020/12/09 04:29:30;;;;;;;1.67;1.27;;;;;;;5.41;96.44;97645.22;4981478;28;20392;-85
2020/12/09 04:32:42;;;;;;;2.53;1.13;;;;;;;5.24;96.50;97647.13;4970691;28;20057;-85
2020/12/09 04:35:56;;;;;;;1.80;0.90;;;;;;;5.28;96.50;97643.16;4981858;28;20411;-84
2020/12/09 04:39:10;;;;;;;1.27;0.87;;;;;;;5.28;96.62;97647.63;4981906;28;20078;-85
2020/12/09 04:42:25;;;;;;;1.97;1.10;;;;;;;5.29;96.56;97647.44;4969564;28;20050;-85
2020/12/09 04:45:38;;;;;;;0.90;0.90;;;;;;;5.28;96.88;97655.53;4992971;28;20047;-86
2020/12/09 04:49:09;;;;;;;1.53;0.80;;;;;;;5.26;97.10;97660.16;4981901;28;20038;-85
2020/12/09 04:52:55;;;;;;;1.38;0.90;;;;;;;5.40;98.37;97657.63;4992695;28;20038;-86
2020/12/09 04:56:10;;;;;;;1.03;0.80;;;;;;;6.17;98.78;97657.56;4983560;28;20413;-85
2020/12/09 04:59:27;;;;;;;1.13;1.00;;;;;;;6.08;95.15;97663.94;4992247;28;20038;-86
2020/12/09 05:02:53;;;;;;;1.00;0.83;;;;;;;5.70;94.55;97673.59;4992568;28;20030;-85
2020/12/09 05:06:05;;;;;;;1.20;0.80;;;;;;;5.58;95.05;97667.06;4981285;28;20481;-85
2020/12/09 05:09:18;;;;;;;1.00;0.90;;;;;;;5.55;95.90;97670.06;4969607;28;20116;-85
2020/12/09 05:12:42;;;;;;;1.10;1.00;;;;;;;5.31;95.93;97666.56;4980536;28;20050;-86
2020/12/09 05:15:58;;;;;;;0.93;0.60;;;;;;;5.03;95.55;97663.56;4994417;28;20046;-86
2020/12/09 05:19:13;;;;;;;0.63;0.60;;;;;;;4.98;96.22;97668.53;4980976;28;20054;-87
2020/12/09 05:22:29;;;;;;;0.30;0.30;;;;;;;5.04;96.14;97664.41;4970929;28;20057;-86
2020/12/09 05:25:44;;;;;;;0.40;0.40;;;;;;;4.98;96.10;97668.53;4981582;28;20493;-85
2020/12/09 05:29:16;;;;;;;0.87;0.40;;;;;;;4.97;96.28;97664.25;4981091;28;20034;-85
2020/12/09 05:32:31;;;;;;;0.50;0.50;;;;;;;5.04;97.37;97667.88;4991298;28;20520;-85
2020/12/09 05:35:57;;;;;;;0.57;0.53;;;;;;;5.12;97.02;97672.28;4969878;28;20045;-84
2020/12/09 05:39:09;;;;;;;0.57;0.57;;;;;;;5.05;97.92;97671.34;4985761;28;20030;-84
2020/12/09 05:42:25;;;;;;;1.40;0.57;;;;;;;5.04;97.55;97664.41;4980857;28;20407;-86
2020/12/09 05:45:39;;;;;;;1.40;0.60;;;;;;;5.07;98.26;97670.16;4979481;28;20050;-86
2020/12/09 05:48:53;;;;;;;1.70;0.60;;;;;;;5.18;98.62;97665.50;4981013;28;20422;-86
2020/12/09 05:52:17;;;;;;;1.77;0.70;;;;;;;5.37;98.14;97673.81;4986112;28;20051;-86
2020/12/09 05:55:30;;;;;;;0.80;0.60;;;;;;;5.34;97.67;97668.88;4970945;28;20061;-86
2020/12/09 05:58:50;;;;;;;0.50;0.50;;;;;;;5.22;97.00;97677.34;4985370;28;20485;-86
2020/12/09 06:02:13;;;;;;;8.70;0.70;;;;;;;5.16;97.37;97680.69;4984546;28;20061;-85
2020/12/09 06:05:26;;;;;;;0.70;0.40;;;;;;;5.11;97.75;97680.38;4945878;29;20406;-86
2020/12/09 06:08:43;;;;;;;0.93;0.60;;;;;;;5.00;98.15;97685.03;4935209;29;20066;-86
2020/12/09 06:12:08;;;;;;;0.80;0.63;;;;;;;4.99;97.32;97687.84;4957701;28;20039;-86
2020/12/09 06:15:27;;;;;;;0.60;0.60;;;;;;;5.01;97.75;97685.88;4967583;28;20390;-84
2020/12/09 06:18:47;;;;;;;0.70;0.50;;;;;;;4.98;98.52;97692.31;4946150;29;20482;-85
2020/12/09 06:22:04;;;;;;;1.60;0.70;;;;;;;5.07;98.47;97696.56;4950494;28;20047;-85
2020/12/09 06:25:22;;;;;;;3.97;0.70;;;;;;;5.01;98.30;97694.63;4946248;29;20070;-84
2020/12/09 06:28:40;;;;;;;3.17;0.50;;;;;;;5.07;97.41;97701.84;4940571;28;20054;-85
2020/12/09 06:32:05;;;;;;;1.20;0.63;;;;;;;4.91;97.54;97707.19;4967745;28;20495;-84
2020/12/09 06:35:23;;;;;;;0.83;0.60;;;;;;;4.82;97.80;97716.16;4957308;28;20058;-84
2020/12/09 06:38:39;;;;;;;0.63;0.57;;;;;;;4.81;98.04;97716.31;4957432;28;20035;-84
2020/12/09 06:41:56;;;;;;;3.30;0.40;;;;;;;4.87;97.53;97712.97;4935739;29;20039;-84
2020/12/09 06:45:13;;;;;;;1.47;0.63;;;;;;;4.91;95.63;97712.47;4945632;29;20043;-83
2020/12/09 06:48:28;;;;;;;0.70;0.50;;;;;;;4.66;96.50;97719.63;4934913;29;20047;-85
2020/12/09 06:51:42;;;;;;;0.57;0.50;;;;;;;4.58;96.87;97716.19;4955703;29;20051;-83
2020/12/09 06:54:56;;;;;;;2.40;0.77;;;;;;;4.54;95.83;97720.16;4955588;29;20051;-84
2020/12/09 06:58:25;;;;;;;2.93;1.50;;;;;;;4.24;96.27;97722.50;4934895;29;20039;-84
2020/12/09 07:02:01;;;;;;;1.63;1.50;;;;;;;4.34;96.93;97720.50;4957006;28;20406;-83
2020/12/09 07:05:18;;;;;;;2.07;1.67;;;;;;;4.29;96.89;97722.81;4923561;28;20051;-84
2020/12/09 07:08:32;;;;;;;4.73;1.30;;;;;;;4.21;97.00;97736.00;4934485;29;20035;-83
2020/12/09 07:12:00;;;;;;;1.83;1.00;;;;;;;4.18;96.31;97733.69;4922585;29;20058;-83
2020/12/09 07:15:23;;;;;;;1.58;0.80;;;;;;;4.09;96.85;97741.78;4934911;29;20054;-83
2020/12/09 07:18:38;;;;;;;1.30;0.90;;;;;;;4.14;97.47;97734.19;4945936;28;20047;-83
2020/12/09 07:22:05;;;;;;;0.80;0.80;;;;;;;4.11;96.78;97737.16;4943701;29;20043;-83
2020/12/09 07:25:19;;;;;;;0.60;0.53;;;;;;;4.03;97.24;97743.25;4953957;29;20039;-84
2020/12/09 07:28:32;;;;;;;0.87;0.73;;;;;;;3.97;97.58;97742.09;4955275;29;20050;-84
2020/12/09 07:31:50;;;;;;;1.50;1.00;;;;;;;3.95;97.76;97745.88;4943308;29;20050;-84
2020/12/09 07:35:09;;;;;;;1.37;1.23;;;;;;;3.92;98.42;97748.84;4955044;29;20062;-84
2020/12/09 07:38:23;;;;;;;1.07;0.80;;;;;;;3.94;97.49;97744.22;4966009;28;20050;-85
2020/12/09 07:41:49;;;;;;;1.17;0.80;;;;;;;4.07;97.00;97743.75;4955761;28;20062;-85
2020/12/09 07:45:03;;;;;;;1.47;0.80;;;;;;;4.00;96.85;97748.88;4939312;28;20054;-85
2020/12/09 07:48:21;;;;;;;1.13;0.97;;;;;;;3.99;97.84;97752.47;4965497;28;20047;-85
2020/12/09 07:51:39;;;;;;;1.60;0.77;;;;;;;3.98;97.17;97754.28;4954512;29;20429;-84
2020/12/09 07:55:01;;;;;;;1.10;0.90;;;;;;;3.96;97.77;97758.06;4943859;29;20044;-83
2020/12/09 07:58:19;;;;;;;2.33;1.03;;;;;;;3.98;97.51;97764.03;4933344;29;20042;-83
2020/12/09 08:01:35;;;;;;;1.00;1.00;;;;;;;4.01;97.67;97766.34;4944584;29;20039;-83
2020/12/09 08:04:50;;;;;;;1.30;1.20;;;;;;;4.04;97.47;97762.53;4953032;28;20042;-83
2020/12/09 08:08:12;;;;;;;1.10;0.90;;;;;;;4.04;97.00;97762.53;4982882;28;20045;-83
2020/12/09 08:11:24;;;;;;;1.20;0.88;;;;;;;4.08;96.08;97758.59;4994160;28;20046;-83
2020/12/09 08:14:40;;;;;;;1.13;0.90;;;;;;;4.11;97.36;97761.72;4970892;28;20046;-83
2020/12/09 08:17:55;;;;;;;1.40;1.10;;;;;;;4.03;97.76;97759.06;4982074;28;20049;-83
2020/12/09 08:21:09;;;;;;;1.93;1.00;;;;;;;4.11;97.71;97760.91;4987066;28;20046;-85
2020/12/09 08:24:25;;;;;;;1.80;1.30;;;;;;;4.15;96.85;97768.31;4982530;28;20049;-84
2020/12/09 08:27:44;;;;;;;1.67;1.00;;;;;;;4.11;97.34;97772.28;4971888;28;20050;-84
2020/12/09 08:30:58;;;;;;;2.20;1.10;;;;;;;4.16;96.49;97772.59;4986311;28;20054;-83
2020/12/09 08:34:20;;;;;;;1.00;0.90;;;;;;;4.17;96.26;97779.53;4982176;28;20046;-83
2020/12/09 08:37:34;;;;;;;1.77;1.27;;;;;;;4.31;96.40;97778.06;4982249;28;20038;-83
2020/12/09 08:40:53;;;;;;;1.10;1.00;;;;;;;4.35;96.60;97774.94;4970721;28;20109;-84
2020/12/09 08:44:09;;;;;;;0.90;0.90;;;;;;;4.40;96.46;97776.22;4982548;28;20057;-84
2020/12/09 08:47:25;;;;;;;0.90;0.80;;;;;;;4.44;96.42;97777.56;4971988;28;20500;-83
2020/12/09 08:50:39;;;;;;;1.33;0.90;;;;;;;4.41;96.40;97786.63;4981981;28;20047;-83
2020/12/09 08:53:53;;;;;;;1.83;1.10;;;;;;;4.54;95.97;97794.06;4993359;28;20057;-83
2020/12/09 08:57:05;;;;;;;1.40;1.10;;;;;;;4.53;96.72;97793.22;4980417;28;20048;-83
2020/12/09 09:00:19;;;;;;;0.73;0.67;;;;;;;4.55;95.63;97800.97;4982051;28;20042;-84
2020/12/09 09:03:38;;;;;;;1.30;1.17;;;;;;;4.55;97.04;97812.38;4992355;28;20054;-83
2020/12/09 09:06:53;;;;;;;1.07;0.90;;;;;;;4.66;96.36;97819.13;4982398;28;20041;-84
2020/12/09 09:10:08;;;;;;;1.37;0.90;;;;;;;4.68;95.34;97823.25;4970172;28;20054;-84
2020/12/09 09:13:25;;;;;;;0.80;0.80;;;;;;;4.72;95.76;97829.00;4981334;28;20050;-85
2020/12/09 09:16:39;;;;;;;1.03;0.80;;;;;;;4.79;95.39;97824.72;4969958;28;20054;-84
2020/12/09 09:19:53;;;;;;;1.23;0.70;;;;;;;4.79;95.42;97845.84;4992443;28;20053;-85
2020/12/09 09:23:09;;;;;;;0.80;0.80;;;;;;;4.85;96.02;97839.91;4981639;28;20042;-85
2020/12/09 09:26:23;;;;;;;0.87;0.87;;;;;;;5.00;95.00;97834.78;4969594;28;20053;-85
2020/12/09 09:29:36;;;;;;;0.77;0.73;;;;;;;4.99;95.94;97836.59;4991951;28;20038;-85
2020/12/09 09:32:50;;;;;;;0.50;0.50;;;;;;;5.07;95.18;97833.94;4970210;28;20048;-85
2020/12/09 09:36:06;;;;;;;0.97;0.80;;;;;;;5.28;94.49;97836.06;4984996;28;20065;-86
2020/12/09 09:39:21;;;;;;;0.57;0.50;;;;;;;5.34;93.16;97851.22;4991438;28;20034;-86
2020/12/09 09:42:35;;;;;;;0.70;0.70;;;;;;;5.24;95.11;97841.84;4981421;28;20042;-86
2020/12/09 09:45:49;;;;;;;0.70;0.70;;;;;;;5.37;94.09;97842.13;4980771;28;20465;-86
2020/12/09 09:49:04;;;;;;;1.07;0.90;;;;;;;5.30;94.81;97844.66;4970091;28;20054;-85
2020/12/09 09:52:18;;;;;;;0.97;0.70;;;;;;;5.38;95.45;97841.16;4980827;28;20043;-85
2020/12/09 09:55:31;;;;;;;0.87;0.80;;;;;;;5.36;95.40;97840.47;4991479;28;20046;-85
2020/12/09 09:58:44;;;;;;;0.87;0.67;;;;;;;5.55;94.87;97841.91;4969223;28;20084;-84
2020/12/09 10:01:58;;;;;;;1.20;0.90;;;;;;;5.46;94.90;97849.03;4981258;28;20042;-85
2020/12/09 10:05:10;;;;;;;2.77;0.97;;;;;;;5.51;96.36;97849.38;4979835;28;20050;-84
2020/12/09 10:08:24;;;;;;;2.13;0.80;;;;;;;5.59;94.59;97854.63;4969268;28;20039;-84
2020/12/09 10:11:40;;;;;;;0.80;0.80;;;;;;;5.61;94.99;97847.34;4979682;28;20034;-85
2020/12/09 10:14:55;;;;;;;1.87;1.10;;;;;;;5.66;94.49;97841.56;4992790;28;20501;-85
2020/12/09 10:18:10;;;;;;;1.00;1.00;;;;;;;5.78;95.35;97843.63;4980598;28;20092;-85
2020/12/09 10:21:35;;;;;;;1.77;1.00;;;;;;;5.74;95.19;97833.59;4980952;28;20050;-84
2020/12/09 10:24:50;;;;;;;1.40;1.17;;;;;;;5.73;94.80;97838.03;4981572;28;20046;-85
2020/12/09 10:28:04;;;;;;;1.50;1.03;;;;;;;5.81;94.88;97837.19;4991848;28;20049;-85
2020/12/09 10:31:19;;;;;;;1.20;1.10;;;;;;;5.82;93.89;97833.53;4991087;28;20038;-87
2020/12/09 10:34:33;;;;;;;1.43;1.33;;;;;;;6.00;95.24;97836.81;4979699;28;20054;-86
2020/12/09 10:37:48;;;;;;;1.40;1.30;;;;;;;5.94;93.94;97820.78;4980862;28;20058;-85
2020/12/09 10:41:04;;;;;;;1.23;1.13;;;;;;;6.06;94.61;97827.34;4993829;28;20393;-85
2020/12/09 10:44:16;;;;;;;1.87;1.63;;;;;;;6.18;94.95;97815.34;4983899;28;20042;-85
2020/12/09 10:47:30;;;;;;;2.83;1.70;;;;;;;6.26;94.96;97812.66;4987928;28;20064;-85
2020/12/09 10:50:45;;;;;;;1.80;1.60;;;;;;;6.30;95.04;97813.94;4984404;28;20038;-85
2020/12/09 10:54:00;;;;;;;1.90;1.50;;;;;;;6.31;94.24;97815.59;4983913;28;20512;-85
2020/12/09 10:57:13;;;;;;;2.27;1.50;;;;;;;6.20;94.25;97816.00;4988320;28;20069;-85
2020/12/09 11:00:27;;;;;;;2.10;1.50;;;;;;;6.25;95.45;97818.97;4983384;28;20045;-85
2020/12/09 11:03:43;;;;;;;1.17;1.07;;;;;;;6.23;94.37;97810.38;4971995;28;20505;-84
2020/12/09 11:06:56;;;;;;;1.50;1.40;;;;;;;6.18;93.79;97802.13;4972439;28;20077;-84
2020/12/09 11:10:10;;;;;;;1.70;1.40;;;;;;;6.16;94.41;97797.00;4983518;28;20157;-84
2020/12/09 11:13:23;;;;;;;1.40;1.10;;;;;;;6.10;93.40;97804.81;4994435;28;20069;-85
2020/12/09 11:16:36;;;;;;;3.17;1.13;;;;;;;6.16;94.61;97804.13;4995017;28;20051;-85
2020/12/09 11:19:49;;;;;;;2.40;1.40;;;;;;;6.31;94.64;97801.53;4971832;28;20363;-85
2020/12/09 11:23:10;;;;;;;1.20;1.00;;;;;;;6.19;93.80;97798.47;4983485;28;20046;-85
2020/12/09 11:26:24;;;;;;;0.90;0.90;;;;;;;6.10;93.25;97799.53;4973232;28;20042;-86
2020/12/09 11:29:38;;;;;;;1.17;1.07;;;;;;;6.13;93.69;97796.53;4994914;28;20402;-86
2020/12/09 11:32:49;;;;;;;1.87;0.90;;;;;;;6.15;93.76;97795.34;4971287;28;20061;-86
2020/12/09 11:36:01;;;;;;;1.33;0.90;;;;;;;6.23;93.71;97801.59;4971426;28;20057;-85
2020/12/09 11:39:14;;;;;;;0.80;0.80;;;;;;;6.21;93.61;97800.94;4982831;28;20054;-86
2020/12/09 11:42:26;;;;;;;2.37;0.90;;;;;;;6.19;93.06;97803.78;4970960;28;20053;-86
2020/12/09 11:45:39;;;;;;;1.17;0.90;;;;;;;6.15;95.13;97802.47;4983549;28;20053;-86
2020/12/09 11:48:53;;;;;;;1.80;0.80;;;;;;;6.21;94.55;97807.06;4982822;28;20038;-85
2020/12/09 11:52:06;;;;;;;1.17;1.07;;;;;;;6.27;95.45;97810.81;4981258;28;20046;-86
2020/12/09 11:55:22;;;;;;;0.80;0.80;;;;;;;6.33;94.18;97810.97;4983004;28;20402;-85
2020/12/09 11:58:34;;;;;;;1.37;1.20;;;;;;;6.29;93.80;97809.66;4983058;28;20039;-86
2020/12/09 12:01:48;;;;;;;2.90;1.20;;;;;;;6.38;95.24;97808.59;4980932;28;20062;-85
2020/12/09 12:05:02;;;;;;;1.53;1.43;;;;;;;6.46;95.47;97807.72;4982736;28;20069;-85
2020/12/09 12:08:16;;;;;;;1.57;1.30;;;;;;;6.47;95.07;97810.19;4982969;28;20057;-86
2020/12/09 12:11:29;;;;;;;1.30;1.20;;;;;;;6.50;95.59;97811.66;4971157;28;20042;-86
2020/12/09 12:14:43;;;;;;;1.67;1.53;;;;;;;6.63;95.03;97808.41;4982323;28;20046;-86
2020/12/09 12:17:57;;;;;;;1.43;1.20;;;;;;;6.57;93.45;97812.59;4980837;28;20054;-86
2020/12/09 12:21:12;;;;;;;1.38;1.25;;;;;;;6.65;94.20;97814.34;4993311;28;20034;-86
2020/12/09 12:24:26;;;;;;;1.53;1.20;;;;;;;6.78;92.90;97815.41;4994248;28;20367;-86
2020/12/09 12:27:39;;;;;;;2.47;1.33;;;;;;;6.85;93.09;97815.50;4970823;28;20050;-86
2020/12/09 12:30:50;;;;;;;;;;;;;;;6.69;93.58;97811.19;4993111;28;20053;-86
2020/12/09 12:34:03;;;;;;;1.80;1.40;;;;;;;6.88;93.20;97815.16;4997744;28;19932;-86
2020/12/09 12:37:17;;;;;;;2.53;1.80;;;;;;;6.94;92.30;97811.78;4993580;28;20042;-86
2020/12/09 12:40:30;;;;;;;2.13;1.73;;;;;;;7.08;94.00;97810.97;4992793;28;20072;-87
2020/12/09 12:43:45;;;;;;;2.15;1.90;;;;;;;7.23;94.34;97811.00;4981796;28;20034;-87
2020/12/09 12:46:59;;;;;;;1.92;1.55;;;;;;;7.29;92.17;97820.06;4981866;28;20045;-86
2020/12/09 12:50:12;;;;;;;4.45;2.58;;;;;;;7.31;92.21;97810.09;4992708;28;20035;-86
2020/12/09 12:53:28;;;;;;;3.17;2.10;;;;;;;7.17;92.17;97815.22;4970668;28;20065;-87
2020/12/09 12:56:42;;;;;;;2.72;2.15;;;;;;;7.25;93.02;97812.47;4981489;28;20043;-86
2020/12/09 12:59:55;;;;;;;2.15;1.85;;;;;;;7.33;91.24;97808.06;4980397;28;20050;-87
2020/12/09 13:03:09;;;;;;;2.53;1.75;;;;;;;7.31;91.06;97807.44;4969358;28;20058;-85
2020/12/09 13:06:22;;;;;;;1.80;1.70;;;;;;;7.18;92.98;97811.56;4969905;28;20050;-86
2020/12/09 13:09:37;;;;;;;1.73;1.63;;;;;;;7.12;94.29;97804.31;4981560;28;20401;-85
2020/12/09 13:12:50;;;;;;;1.98;1.67;;;;;;;7.12;93.24;97811.44;4981170;28;20037;-86
2020/12/09 13:16:03;;;;;;;1.67;1.40;;;;;;;7.27;94.51;97808.81;4979401;28;20051;-86
2020/12/09 13:19:17;;;;;;;3.90;1.40;;;;;;;7.32;93.98;97806.41;4985750;28;20050;-86
2020/12/09 13:22:32;;;;;;;1.52;1.17;;;;;;;7.41;94.47;97805.34;4992470;28;20038;-85
2020/12/09 13:25:47;;;;;;;1.70;1.40;;;;;;;7.01;94.10;97807.41;4980175;28;20050;-85
2020/12/09 13:29:01;;;;;;;2.42;1.60;;;;;;;6.96;93.53;97819.56;4992892;28;20050;-85
2020/12/09 13:32:15;;;;;;;1.65;1.55;;;;;;;6.60;93.13;97825.50;4971502;28;20062;-84
2020/12/09 13:35:29;;;;;;;2.58;1.67;;;;;;;6.67;93.71;97820.31;4985804;28;20493;-84
2020/12/09 13:38:45;;;;;;;1.30;1.20;;;;;;;6.63;92.32;97824.28;4981308;28;20050;-85
2020/12/09 13:41:58;;;;;;;1.63;1.50;;;;;;;6.50;92.99;97827.53;4981210;28;20038;-85
2020/12/09 13:45:11;;;;;;;1.60;1.50;;;;;;;6.79;92.98;97816.22;4981187;28;20053;-85
2020/12/09 13:48:26;;;;;;;2.08;1.63;;;;;;;6.66;93.45;97826.59;4981142;28;20047;-86
2020/12/09 13:51:41;;;;;;;2.15;1.58;;;;;;;6.57;94.03;97833.78;4969438;28;20049;-85
2020/12/09 13:54:57;;;;;;;1.90;1.70;;;;;;;6.72;93.27;97829.38;4981025;28;20042;-85
2020/12/09 13:58:11;;;;;;;3.10;1.60;;;;;;;6.80;94.06;97829.28;4991991;28;20043;-86
2020/12/09 14:01:23;;;;;;;2.33;1.80;;;;;;;6.80;93.91;97829.28;4980743;28;20042;-86
2020/12/09 14:04:38;;;;;;;1.90;1.47;;;;;;;6.84;94.16;97835.06;4990200;28;20066;-85
2020/12/09 14:07:52;;;;;;;3.17;1.90;;;;;;;6.63;94.99;97842.84;4980825;28;20085;-85
2020/12/09 14:11:06;;;;;;;4.07;2.55;;;;;;;6.48;95.60;97848.91;4981369;28;20046;-85
2020/12/09 14:14:20;;;;;;;2.60;2.20;;;;;;;6.70;95.31;97843.78;4992010;28;20049;-85
2020/12/09 14:17:33;;;;;;;6.07;2.10;;;;;;;6.94;95.10;97856.00;4988437;28;20047;-85
2020/12/09 14:20:55;;;;;;;4.30;2.30;;;;;;;7.13;95.07;97856.31;5006412;28;20081;-85
2020/12/09 14:24:12;;;;;;;2.90;2.20;;;;;;;7.08;94.84;97857.88;4974320;28;20054;-85
2020/12/09 14:27:28;;;;;;;4.00;1.77;;;;;;;7.15;94.31;97854.31;4996158;28;20045;-87
2020/12/09 14:30:40;;;;;;;1.80;1.70;;;;;;;7.53;94.15;97868.34;4995494;28;20049;-89
2020/12/09 14:33:55;;;;;;;2.28;1.80;;;;;;;7.63;94.09;97857.47;4984251;28;20043;-87
2020/12/09 14:37:08;;;;;;;3.40;2.70;;;;;;;7.66;94.33;97861.59;4983976;28;20465;-86
2020/12/09 14:40:21;;;;;;;2.75;2.22;;;;;;;7.58;93.08;97865.97;4995443;28;20035;-86
2020/12/09 14:43:34;;;;;;;2.67;2.45;;;;;;;7.53;93.99;97868.34;4984327;28;20034;-86
2020/12/09 14:46:49;;;;;;;2.97;2.20;;;;;;;7.42;93.05;97870.63;4983389;28;20042;-85
2020/12/09 14:50:02;;;;;;;2.60;2.30;;;;;;;7.20;92.94;97867.84;4984019;28;20046;-85
2020/12/09 14:53:16;;;;;;;2.25;1.95;;;;;;;7.10;94.01;97877.88;4984145;28;20031;-84
2020/12/09 14:56:28;;;;;;;4.93;2.35;;;;;;;7.00;94.38;97881.78;4983915;28;20071;-84
2020/12/09 14:59:41;;;;;;;2.25;1.90;;;;;;;6.99;94.74;97873.00;4995379;28;20045;-84
2020/12/09 15:03:03;;;;;;;2.67;2.03;;;;;;;6.94;94.93;97880.69;4983911;28;20481;-84
2020/12/09 15:06:21;;;;;;;3.58;2.60;;;;;;;6.92;94.99;97873.91;4985266;28;20034;-85
2020/12/09 15:09:33;;;;;;;3.53;2.30;;;;;;;6.84;96.42;97877.47;4987420;28;20058;-84
2020/12/09 15:12:48;;;;;;;3.08;2.20;;;;;;;6.86;96.63;97881.56;4983631;28;20049;-84
2020/12/09 15:16:02;;;;;;;3.13;2.47;;;;;;;6.99;96.45;97880.97;4984404;28;20405;-85
2020/12/09 15:19:14;;;;;;;2.63;2.15;;;;;;;7.00;96.41;97887.09;4983389;28;20050;-84
2020/12/09 15:22:28;;;;;;;3.00;2.30;;;;;;;6.92;95.97;97887.97;4971819;28;20046;-84
2020/12/09 15:25:41;;;;;;;2.75;2.17;;;;;;;6.95;96.21;97892.94;4983142;28;20050;-84
2020/12/09 15:28:54;;;;;;;4.78;2.70;;;;;;;7.04;96.16;97899.81;4982090;28;20034;-84
2020/12/09 15:32:07;;;;;;;5.22;2.58;;;;;;;6.89;95.78;97896.28;4983105;28;20054;-84